createdAt,value
2018-09-10T00:00:09.450Z,75.60
2018-09-10T00:02:37.546Z,75.20
2018-09-10T00:05:06.985Z,74.80
2018-09-10T00:07:35.198Z,74.60
2018-09-10T00:10:03.445Z,74.00
2018-09-10T00:12:31.525Z,74.20
2018-09-10T00:14:59.721Z,74.90
2018-09-10T00:17:27.894Z,73.90
2018-09-10T00:19:56.002Z,73.70
2018-09-10T00:22:24.118Z,73.80
2018-09-10T00:24:52.568Z,75.30
2018-09-10T00:27:20.861Z,75.70
2018-09-10T00:29:49.214Z,74.10
2018-09-10T00:32:17.310Z,74.00
2018-09-10T00:34:45.495Z,74.30
2018-09-10T00:37:13.701Z,75.50
2018-09-10T00:39:42.031Z,75.80
2018-09-10T00:42:10.234Z,76.20
2018-09-10T00:44:38.462Z,75.80
2018-09-10T00:47:06.676Z,75.70
2018-09-10T00:49:34.637Z,75.80
2018-09-10T00:52:02.718Z,75.60
2018-09-10T00:54:30.876Z,75.50
2018-09-10T00:56:58.917Z,74.80
2018-09-10T00:59:27.045Z,74.70
2018-09-10T01:01:55.744Z,75.00
2018-09-10T01:04:52.898Z,74.00
2018-09-10T01:07:20.999Z,74.40
2018-09-10T01:09:49.209Z,75.80
2018-09-10T01:12:17.262Z,76.60
2018-09-10T01:14:45.437Z,76.50
2018-09-10T01:17:13.570Z,75.70
2018-09-10T01:19:41.699Z,76.00
2018-09-10T01:22:09.850Z,77.00
2018-09-10T01:24:38.121Z,77.00
2018-09-10T01:27:06.147Z,75.90
2018-09-10T01:29:34.316Z,75.20
2018-09-10T01:32:02.595Z,75.10
2018-09-10T01:34:36.321Z,74.50
2018-09-10T01:37:04.545Z,75.00
2018-09-10T01:39:32.818Z,75.50
2018-09-10T01:42:01.047Z,76.00
2018-09-10T01:44:29.280Z,75.50
2018-09-10T01:46:57.557Z,75.60
2018-09-10T01:49:25.743Z,74.20
2018-09-10T01:51:53.985Z,74.20
2018-09-10T01:54:22.089Z,74.70
2018-09-10T01:56:50.671Z,76.10
2018-09-10T01:59:18.732Z,76.30
2018-09-10T02:01:47.726Z,76.60
2018-09-10T02:04:15.903Z,76.70
2018-09-10T02:06:43.997Z,76.70
2018-09-10T02:09:12.176Z,76.10
2018-09-10T02:11:40.296Z,76.50
2018-09-10T02:14:08.533Z,76.60
2018-09-10T02:16:36.611Z,76.30
2018-09-10T02:19:04.797Z,75.70
2018-09-10T02:21:32.967Z,76.70
2018-09-10T02:24:01.052Z,76.40
2018-09-10T02:26:29.153Z,76.50
2018-09-10T02:28:58.331Z,76.50
2018-09-10T02:31:26.589Z,75.60
2018-09-10T02:33:54.836Z,75.60
2018-09-10T02:36:22.998Z,75.70
2018-09-10T02:38:51.302Z,76.00
2018-09-10T02:41:19.532Z,76.40
2018-09-10T02:43:47.841Z,76.40
2018-09-10T02:46:16.053Z,76.00
2018-09-10T02:48:44.271Z,76.90
2018-09-10T02:51:12.444Z,77.20
2018-09-10T02:53:40.610Z,76.90
2018-09-10T02:56:08.980Z,76.30
2018-09-10T02:58:37.275Z,76.00
2018-09-10T03:01:05.467Z,76.30
2018-09-10T03:03:33.556Z,76.00
2018-09-10T03:06:01.693Z,76.20
2018-09-10T03:08:29.805Z,76.50
2018-09-10T03:10:57.932Z,77.70
2018-09-10T03:13:26.026Z,79.90
2018-09-10T03:15:54.142Z,79.70
2018-09-10T03:18:22.286Z,79.50
2018-09-10T03:20:50.446Z,80.30
2018-09-10T03:23:18.496Z,79.00
2018-09-10T03:25:46.747Z,79.30
2018-09-10T03:28:14.853Z,80.30
2018-09-10T03:30:42.934Z,78.80
2018-09-10T03:33:11.116Z,78.70
2018-09-10T03:35:39.260Z,78.90
2018-09-10T03:38:07.381Z,79.30
2018-09-10T03:40:35.517Z,80.50
2018-09-10T03:43:03.578Z,79.40
2018-09-10T03:45:31.729Z,78.00
2018-09-10T03:47:59.814Z,78.80
2018-09-10T03:50:28.036Z,79.10
2018-09-10T03:52:56.237Z,79.80
2018-09-10T03:55:24.290Z,80.10
2018-09-10T03:57:52.498Z,80.20
2018-09-10T04:00:20.672Z,80.80
2018-09-10T04:02:48.691Z,81.40
2018-09-10T04:05:16.725Z,82.00
2018-09-10T04:07:44.752Z,82.00
2018-09-10T04:10:13.075Z,82.00
2018-09-10T04:12:41.207Z,82.00
2018-09-10T04:15:09.247Z,81.40
2018-09-10T04:17:38.287Z,80.30
2018-09-10T04:20:10.397Z,79.90
2018-09-10T04:22:40.085Z,79.50
2018-09-10T04:25:08.355Z,80.10
2018-09-10T04:27:37.262Z,80.20
2018-09-10T04:30:11.245Z,79.90
2018-09-10T04:32:39.471Z,80.60
2018-09-10T04:35:07.930Z,80.90
2018-09-10T04:37:36.432Z,80.20
2018-09-10T04:40:04.692Z,80.00
2018-09-10T04:42:32.891Z,79.90
2018-09-10T04:45:01.456Z,79.90
2018-09-10T04:47:29.544Z,80.10
2018-09-10T04:49:57.679Z,81.70
2018-09-10T04:52:25.844Z,81.30
2018-09-10T04:54:53.918Z,81.40
2018-09-10T04:57:21.945Z,80.40
2018-09-10T04:59:50.663Z,78.90
2018-09-10T05:02:18.843Z,78.80
2018-09-10T05:04:46.962Z,78.70
2018-09-10T05:07:15.098Z,78.70
2018-09-10T05:09:43.160Z,78.60
2018-09-10T05:12:11.321Z,78.70
2018-09-10T05:14:39.488Z,79.40
2018-09-10T05:17:07.694Z,78.40
2018-09-10T05:19:35.914Z,77.00
2018-09-10T05:22:05.038Z,78.10
2018-09-10T05:24:33.102Z,78.10
2018-09-10T05:27:01.264Z,78.60
2018-09-10T05:29:29.368Z,77.50
2018-09-10T05:31:58.810Z,76.70
2018-09-10T05:34:27.029Z,76.80
2018-09-10T05:36:55.170Z,76.70
2018-09-10T05:39:23.290Z,76.80
2018-09-10T05:41:51.525Z,75.40
2018-09-10T05:44:19.655Z,74.90
2018-09-10T05:46:47.768Z,74.90
2018-09-10T05:49:15.900Z,74.20
2018-09-10T05:51:43.922Z,74.80
2018-09-10T05:54:12.048Z,74.30
2018-09-10T05:56:40.081Z,74.20
2018-09-10T05:59:08.213Z,74.20
2018-09-10T06:01:36.382Z,73.80
2018-09-10T06:04:04.556Z,72.90
2018-09-10T06:06:32.657Z,74.20
2018-09-10T06:09:01.077Z,73.80
2018-09-10T06:11:29.218Z,73.40
2018-09-10T06:14:16.162Z,73.10
2018-09-10T06:16:44.261Z,73.20
2018-09-10T06:19:12.390Z,73.10
2018-09-10T06:21:40.522Z,73.00
2018-09-10T06:24:08.680Z,72.40
2018-09-10T06:26:36.773Z,72.30
2018-09-10T06:29:04.964Z,70.80
2018-09-10T06:31:33.239Z,71.00
2018-09-10T06:34:01.486Z,70.80
2018-09-10T06:36:29.665Z,69.60
2018-09-10T06:38:57.910Z,69.50
2018-09-10T06:41:26.215Z,69.60
2018-09-10T06:43:54.372Z,69.80
2018-09-10T06:46:22.548Z,69.20
2018-09-10T06:48:50.839Z,68.00
2018-09-10T06:51:19.030Z,65.90
2018-09-10T06:53:47.713Z,65.70
2018-09-10T06:56:16.049Z,67.00
2018-09-10T06:58:44.310Z,65.80
2018-09-10T07:01:12.536Z,63.00
2018-09-10T07:03:40.806Z,63.50
2018-09-10T07:06:09.054Z,60.70
2018-09-10T07:08:37.260Z,59.50
2018-09-10T07:11:05.542Z,56.00
2018-09-10T07:13:33.785Z,53.20
2018-09-10T07:16:01.966Z,50.40
2018-09-10T07:18:30.264Z,46.80
2018-09-10T07:20:58.482Z,42.80
2018-09-10T07:23:26.622Z,38.20
2018-09-10T07:25:54.722Z,36.00
2018-09-10T07:28:23.053Z,34.30
2018-09-10T07:30:51.265Z,30.40
2018-09-10T07:33:19.460Z,29.80
2018-09-10T07:35:47.633Z,30.00
2018-09-10T07:38:16.602Z,27.60
2018-09-10T07:40:44.753Z,26.70
2018-09-10T07:43:13.015Z,25.70
2018-09-10T07:45:41.356Z,25.70
2018-09-10T07:48:09.433Z,25.80
2018-09-10T07:50:37.700Z,26.00
2018-09-10T07:53:05.827Z,25.10
2018-09-10T07:55:34.124Z,25.90
2018-09-10T07:58:02.377Z,24.80
2018-09-10T08:00:30.521Z,23.60
2018-09-10T08:02:58.826Z,23.70
2018-09-10T08:05:27.168Z,23.40
2018-09-10T08:07:55.345Z,23.60
2018-09-10T08:10:23.564Z,23.20
2018-09-10T08:12:51.790Z,22.10
2018-09-10T08:15:20.071Z,22.40
2018-09-10T08:17:48.270Z,22.70
2018-09-10T08:20:16.530Z,24.80
2018-09-10T08:22:44.722Z,25.20
2018-09-10T08:25:12.887Z,26.70
2018-09-10T08:27:41.077Z,27.90
2018-09-10T08:30:09.161Z,27.10
2018-09-10T08:32:37.242Z,24.40
2018-09-10T08:35:05.429Z,22.30
2018-09-10T08:37:33.633Z,22.70
2018-09-10T08:40:01.746Z,21.00
2018-09-10T08:42:30.219Z,20.60
2018-09-10T08:44:58.977Z,18.80
2018-09-10T08:47:27.149Z,19.10
2018-09-10T08:49:55.334Z,18.30
2018-09-10T08:52:24.285Z,18.20
2018-09-10T08:54:52.733Z,17.50
2018-09-10T08:57:20.545Z,17.80
2018-09-10T08:59:48.814Z,17.50
2018-09-10T09:02:16.970Z,17.90
2018-09-10T09:04:45.085Z,18.50
2018-09-10T09:07:13.274Z,18.90
2018-09-10T09:09:41.485Z,19.40
2018-09-10T09:12:10.938Z,19.10
2018-09-10T09:14:39.124Z,18.90
2018-09-10T09:17:07.286Z,18.40
2018-09-10T09:19:35.513Z,18.30
2018-09-10T09:22:03.773Z,19.00
2018-09-10T09:24:31.915Z,19.00
2018-09-10T09:27:00.194Z,19.00
2018-09-10T09:29:28.350Z,19.60
2018-09-10T09:31:56.487Z,20.50
2018-09-10T09:35:03.492Z,21.20
2018-09-10T09:37:37.868Z,22.30
2018-09-10T09:41:10.120Z,23.00
2018-09-10T09:43:43.714Z,22.30
2018-09-10T09:46:14.619Z,23.00
2018-09-10T09:48:42.806Z,24.50
2018-09-10T09:51:11.012Z,24.30
2018-09-10T09:53:39.115Z,24.70
2018-09-10T09:56:07.367Z,25.50
2018-09-10T09:58:35.504Z,26.30
2018-09-10T10:01:09.208Z,26.90
2018-09-10T10:03:43.011Z,26.50
2018-09-10T10:06:11.183Z,27.40
2018-09-10T10:08:39.322Z,27.20
2018-09-10T10:11:07.519Z,26.70
2018-09-10T10:13:35.777Z,27.30
2018-09-10T10:16:03.957Z,27.10
2018-09-10T10:18:32.175Z,26.70
2018-09-10T10:21:00.291Z,26.30
2018-09-10T10:23:28.567Z,26.10
2018-09-10T10:25:56.831Z,28.20
2018-09-10T10:28:25.122Z,26.60
2018-09-10T10:30:53.264Z,25.00
2018-09-10T10:33:21.360Z,23.70
2018-09-10T10:35:49.642Z,22.80
2018-09-10T10:38:17.884Z,23.10
2018-09-10T10:40:46.067Z,21.50
2018-09-10T10:43:14.217Z,21.90
2018-09-10T10:45:42.499Z,22.80
2018-09-10T10:48:10.714Z,21.80
2018-09-10T10:50:38.919Z,19.10
2018-09-10T10:53:07.189Z,16.80
2018-09-10T10:55:35.620Z,16.50
2018-09-10T10:58:03.729Z,15.30
2018-09-10T11:00:31.998Z,16.70
2018-09-10T11:03:00.169Z,16.80
2018-09-10T11:05:30.774Z,16.30
2018-09-10T11:07:58.969Z,16.10
2018-09-10T11:10:27.113Z,14.90
2018-09-10T11:12:55.358Z,14.80
2018-09-10T11:15:23.566Z,17.00
2018-09-10T11:17:51.900Z,17.10
2018-09-10T11:20:20.120Z,16.20
2018-09-10T11:22:48.185Z,15.10
2018-09-10T11:25:16.386Z,15.40
2018-09-10T11:27:46.151Z,14.40
2018-09-10T11:30:14.204Z,13.00
2018-09-10T11:32:42.429Z,13.30
2018-09-10T11:35:10.742Z,13.80
2018-09-10T11:37:38.822Z,13.40
2018-09-10T11:40:07.082Z,13.10
2018-09-10T11:42:35.211Z,13.30
2018-09-10T11:45:03.352Z,12.50
2018-09-10T11:47:31.530Z,12.10
2018-09-10T11:49:59.725Z,13.50
2018-09-10T11:52:27.833Z,12.80
2018-09-10T11:54:56.885Z,12.10
2018-09-10T11:57:25.060Z,13.60
2018-09-10T11:59:53.201Z,13.10
2018-09-10T12:02:21.330Z,13.20
2018-09-10T12:04:50.153Z,12.70
2018-09-10T12:07:18.385Z,11.30
2018-09-10T12:09:47.504Z,9.40
2018-09-10T12:12:15.560Z,9.30
2018-09-10T12:14:43.916Z,8.40
2018-09-10T12:17:12.101Z,9.30
2018-09-10T12:19:40.800Z,10.40
2018-09-10T12:22:08.974Z,11.00
2018-09-10T12:24:37.167Z,10.70
2018-09-10T12:27:05.412Z,11.10
2018-09-10T12:29:33.724Z,11.90
2018-09-10T12:32:02.020Z,13.00
2018-09-10T12:34:30.269Z,12.10
2018-09-10T12:36:58.488Z,11.90
2018-09-10T12:39:26.592Z,11.70
2018-09-10T12:41:54.690Z,11.10
2018-09-10T12:44:22.984Z,11.90
2018-09-10T12:46:51.151Z,12.00
2018-09-10T12:49:19.354Z,11.40
2018-09-10T12:51:47.438Z,11.30
2018-09-10T12:54:15.595Z,10.20
2018-09-10T12:56:44.297Z,8.30
2018-09-10T12:59:12.463Z,8.00
2018-09-10T13:01:40.690Z,7.90
2018-09-10T13:04:08.987Z,8.70
2018-09-10T13:06:38.105Z,8.20
2018-09-10T13:09:07.036Z,9.60
2018-09-10T13:11:35.674Z,10.80
2018-09-10T13:14:08.922Z,11.50
2018-09-10T13:16:37.099Z,11.90
2018-09-10T13:19:05.729Z,13.30
2018-09-10T13:21:34.003Z,12.90
2018-09-10T13:24:02.277Z,14.30
2018-09-10T13:26:30.589Z,14.30
2018-09-10T13:28:58.762Z,14.30
2018-09-10T13:31:27.023Z,14.00
2018-09-10T13:33:55.241Z,14.20
2018-09-10T13:36:23.493Z,15.00
2018-09-10T13:38:51.728Z,14.40
2018-09-10T13:41:20.006Z,15.00
2018-09-10T13:43:48.257Z,15.30
2018-09-10T13:46:16.532Z,15.80
2018-09-10T13:48:44.789Z,15.90
2018-09-10T13:51:12.973Z,16.30
2018-09-10T13:53:41.251Z,17.20
2018-09-10T13:56:09.491Z,17.60
2018-09-10T13:58:37.740Z,17.90
2018-09-10T14:01:06.148Z,18.80
2018-09-10T14:03:34.541Z,18.20
2018-09-10T14:06:02.899Z,18.20
2018-09-10T14:08:31.095Z,19.60
2018-09-10T14:10:59.405Z,19.60
2018-09-10T14:13:27.576Z,19.40
2018-09-10T14:15:55.850Z,19.80
2018-09-10T14:18:24.143Z,19.50
2018-09-10T14:20:52.368Z,20.00
2018-09-10T14:23:20.599Z,20.50
2018-09-10T14:25:48.883Z,21.90
2018-09-10T14:28:17.158Z,20.10
2018-09-10T14:30:45.320Z,21.10
2018-09-10T14:33:13.500Z,21.70
2018-09-10T14:35:41.706Z,21.60
2018-09-10T14:38:09.906Z,21.50
2018-09-10T14:40:38.101Z,21.80
2018-09-10T14:43:06.268Z,21.50
2018-09-10T14:45:34.764Z,22.30
2018-09-10T14:48:03.003Z,21.40
2018-09-10T14:50:31.262Z,21.50
2018-09-10T14:52:59.497Z,21.90
2018-09-10T14:55:27.659Z,22.20
2018-09-10T14:57:55.820Z,22.10
2018-09-10T15:00:24.890Z,23.00
2018-09-10T15:02:53.895Z,22.00
2018-09-10T15:05:22.178Z,22.40
2018-09-10T15:07:51.094Z,22.70
2018-09-10T15:10:19.207Z,21.50
2018-09-10T15:12:47.316Z,21.50
2018-09-10T15:15:15.992Z,21.40
2018-09-10T15:17:44.173Z,21.50
2018-09-10T15:20:12.369Z,21.40
2018-09-10T15:22:40.909Z,22.00
2018-09-10T15:25:14.064Z,21.70
2018-09-10T15:27:42.245Z,21.30
2018-09-10T15:30:10.525Z,21.20
2018-09-10T15:32:38.648Z,21.10
2018-09-10T15:35:16.330Z,21.10
2018-09-10T15:37:44.436Z,21.60
2018-09-10T15:40:12.523Z,21.00
2018-09-10T15:42:40.786Z,21.70
2018-09-10T15:45:09.545Z,20.90
2018-09-10T15:47:37.705Z,22.10
2018-09-10T15:50:06.262Z,21.40
2018-09-10T15:52:37.339Z,22.70
2018-09-10T15:55:05.497Z,22.00
2018-09-10T15:57:33.593Z,24.30
2018-09-10T16:00:01.904Z,23.00
2018-09-10T16:02:30.026Z,23.40
2018-09-10T16:04:58.261Z,23.30
2018-09-10T16:07:26.446Z,24.20
2018-09-10T16:09:54.600Z,23.80
2018-09-10T16:12:23.154Z,24.90
2018-09-10T16:14:51.442Z,23.90
2018-09-10T16:17:20.080Z,24.50
2018-09-10T16:19:48.443Z,24.80
2018-09-10T16:22:16.792Z,24.00
2018-09-10T16:24:44.969Z,23.70
2018-09-10T16:27:13.149Z,24.00
2018-09-10T16:29:41.820Z,24.70
2018-09-10T16:32:10.305Z,25.10
2018-09-10T16:34:38.506Z,27.60
2018-09-10T16:37:06.545Z,26.60
2018-09-10T16:39:35.636Z,26.80
2018-09-10T16:42:04.039Z,29.50
2018-09-10T16:44:32.142Z,27.50
2018-09-10T16:47:00.445Z,27.50
2018-09-10T16:49:28.693Z,27.30
2018-09-10T16:51:56.956Z,27.60
2018-09-10T16:54:25.323Z,32.30
2018-09-10T16:56:53.534Z,32.30
2018-09-10T16:59:21.862Z,31.50
2018-09-10T17:01:50.028Z,34.00
2018-09-10T17:04:18.206Z,31.80
2018-09-10T17:06:46.405Z,34.50
2018-09-10T17:09:14.580Z,34.30
2018-09-10T17:11:43.155Z,34.30
2018-09-10T17:14:11.538Z,34.10
2018-09-10T17:16:39.585Z,34.00
2018-09-10T17:19:07.852Z,36.20
2018-09-10T17:21:36.343Z,36.60
2018-09-10T17:24:04.414Z,35.80
2018-09-10T17:26:32.654Z,37.10
2018-09-10T17:29:00.900Z,37.90
2018-09-10T17:31:29.068Z,38.80
2018-09-10T17:33:57.338Z,36.90
2018-09-10T17:36:25.458Z,38.80
2018-09-10T17:38:53.691Z,37.00
2018-09-10T17:41:22.290Z,38.70
2018-09-10T17:43:50.663Z,38.40
2018-09-10T17:46:19.036Z,38.40
2018-09-10T17:48:47.305Z,38.40
2018-09-10T17:51:15.531Z,38.90
2018-09-10T17:53:43.729Z,38.30
2018-09-10T17:56:12.028Z,38.40
2018-09-10T17:58:40.339Z,39.50
2018-09-10T18:01:08.630Z,40.70
2018-09-10T18:03:36.832Z,41.00
2018-09-10T18:06:05.033Z,41.20
2018-09-10T18:08:33.204Z,41.20
2018-09-10T18:11:01.734Z,41.70
2018-09-10T18:13:30.072Z,43.40
2018-09-10T18:15:58.265Z,42.90
2018-09-10T18:18:26.444Z,41.70
2018-09-10T18:20:54.506Z,42.00
2018-09-10T18:23:22.739Z,42.50
2018-09-10T18:25:50.989Z,43.80
2018-09-10T18:28:19.209Z,43.80
2018-09-10T18:30:47.602Z,44.30
2018-09-10T18:33:16.065Z,44.30
2018-09-10T18:35:44.214Z,45.50
2018-09-10T18:38:12.682Z,44.40
2018-09-10T18:40:40.807Z,45.40
2018-09-10T18:43:09.018Z,46.80
2018-09-10T18:45:37.284Z,47.80
2018-09-10T18:48:05.532Z,46.60
2018-09-10T18:50:34.503Z,47.50
2018-09-10T18:53:02.676Z,47.30
2018-09-10T18:55:30.905Z,47.40
2018-09-10T18:57:59.149Z,47.30
2018-09-10T19:00:27.389Z,49.00
2018-09-10T19:02:55.597Z,49.60
2018-09-10T19:05:23.825Z,50.40
2018-09-10T19:07:52.095Z,50.60
2018-09-10T19:10:20.239Z,52.00
2018-09-10T19:12:49.115Z,52.60
2018-09-10T19:15:17.468Z,53.00
2018-09-10T19:17:45.625Z,53.60
2018-09-10T19:20:13.833Z,54.20
2018-09-10T19:22:42.059Z,54.60
2018-09-10T19:25:10.566Z,55.60
2018-09-10T19:27:38.646Z,55.50
2018-09-10T19:30:06.821Z,55.40
2018-09-10T19:32:35.061Z,55.50
2018-09-10T19:35:03.341Z,55.10
2018-09-10T19:37:32.038Z,55.20
2018-09-10T19:40:00.254Z,54.30
2018-09-10T19:42:28.459Z,54.70
2018-09-10T19:44:56.737Z,55.20
2018-09-10T19:47:25.019Z,55.20
2018-09-10T19:49:53.777Z,55.70
2018-09-10T19:52:21.848Z,55.10
2018-09-10T19:54:50.218Z,55.10
2018-09-10T19:57:18.372Z,55.30
2018-09-10T19:59:46.545Z,55.60
2018-09-10T20:02:15.030Z,55.50
2018-09-10T20:04:43.269Z,55.70
2018-09-10T20:07:11.586Z,54.70
2018-09-10T20:09:39.849Z,54.60
2018-09-10T20:12:07.957Z,55.30
2018-09-10T20:14:36.297Z,56.50
2018-09-10T20:17:04.531Z,56.50
2018-09-10T20:19:32.734Z,56.50
2018-09-10T20:22:01.221Z,56.50
2018-09-10T20:24:29.334Z,56.40
2018-09-10T20:26:57.458Z,56.50
2018-09-10T20:29:25.618Z,56.50
2018-09-10T20:31:53.665Z,56.50
2018-09-10T20:34:22.045Z,56.50
2018-09-10T20:36:50.236Z,56.90
2018-09-10T20:39:18.508Z,56.40
2018-09-10T20:41:46.798Z,56.40
2018-09-10T20:44:14.951Z,56.50
2018-09-10T20:46:43.036Z,56.50
2018-09-10T20:49:11.200Z,57.20
2018-09-10T20:51:41.174Z,57.30
2018-09-10T20:54:09.263Z,57.40
2018-09-10T20:56:37.439Z,57.80
2018-09-10T20:59:05.681Z,58.30
2018-09-10T21:01:33.860Z,57.90
2018-09-10T21:04:02.118Z,57.10
2018-09-10T21:06:30.258Z,56.40
2018-09-10T21:08:58.339Z,56.20
2018-09-10T21:11:26.618Z,57.00
2018-09-10T21:13:54.954Z,57.50
2018-09-10T21:16:23.205Z,57.70
2018-09-10T21:18:51.387Z,57.30
2018-09-10T21:21:19.598Z,58.00
2018-09-10T21:23:47.663Z,58.40
2018-09-10T21:26:15.855Z,58.60
2018-09-10T21:28:43.968Z,58.80
2018-09-10T21:31:12.157Z,59.00
2018-09-10T21:33:40.221Z,59.30
2018-09-10T21:36:08.404Z,59.10
2018-09-10T21:38:36.598Z,59.70
2018-09-10T21:41:04.781Z,59.60
2018-09-10T21:43:33.051Z,60.60
2018-09-10T21:46:01.232Z,60.30
2018-09-10T21:48:29.451Z,60.10
2018-09-10T21:50:58.361Z,60.70
2018-09-10T21:53:26.578Z,60.00
2018-09-10T21:55:54.809Z,60.30
2018-09-10T21:58:22.991Z,60.40
2018-09-10T22:00:52.936Z,60.80
2018-09-10T22:03:21.072Z,61.60
2018-09-10T22:05:49.230Z,62.00
2018-09-10T22:08:17.408Z,62.00
2018-09-10T22:10:45.585Z,62.30
2018-09-10T22:13:13.705Z,61.70
2018-09-10T22:15:42.244Z,62.00
2018-09-10T22:18:10.951Z,62.20
2018-09-10T22:20:39.040Z,62.80
2018-09-10T22:23:07.277Z,62.80
2018-09-10T22:25:35.559Z,63.60
2018-09-10T22:28:04.906Z,64.60
2018-09-10T22:30:34.033Z,64.80
2018-09-10T22:33:02.185Z,64.60
2018-09-10T22:35:30.232Z,65.40
2018-09-10T22:37:58.385Z,65.20
2018-09-10T22:40:26.508Z,64.70
2018-09-10T22:42:54.585Z,64.60
2018-09-10T22:45:22.708Z,64.50
2018-09-10T22:47:50.768Z,64.10
2018-09-10T22:50:18.901Z,64.30
2018-09-10T22:52:46.961Z,64.40
2018-09-10T22:55:15.063Z,65.00
2018-09-10T22:57:43.312Z,65.70
2018-09-10T23:00:11.580Z,65.70
2018-09-10T23:02:39.962Z,65.70
2018-09-10T23:05:08.151Z,65.50
2018-09-10T23:07:36.324Z,65.50
2018-09-10T23:10:05.525Z,65.50
2018-09-10T23:12:33.641Z,65.40
2018-09-10T23:15:01.835Z,65.40
2018-09-10T23:17:29.926Z,65.30
2018-09-10T23:19:58.021Z,65.30
2018-09-10T23:22:26.119Z,65.30
2018-09-10T23:24:54.277Z,65.20
2018-09-10T23:27:22.334Z,65.30
2018-09-10T23:29:50.404Z,65.20
2018-09-10T23:32:18.492Z,66.40
2018-09-10T23:34:46.625Z,66.00
2018-09-10T23:37:14.758Z,66.10
2018-09-10T23:39:43.331Z,66.20
2018-09-10T23:42:11.457Z,66.10
2018-09-10T23:44:39.784Z,66.30
2018-09-10T23:47:07.921Z,66.10
2018-09-10T23:49:36.095Z,65.00
2018-09-10T23:52:04.634Z,64.90
2018-09-10T23:54:32.666Z,64.90
2018-09-10T23:57:00.837Z,64.90
2018-09-10T23:59:28.952Z,64.90
